Flight Track Log - Related Links

Times and Time Zones

All times are in EDT time to prevent confusion due to time zone crossing. See the EJA982 flight status page for this flight to view local times or setup timezone preferences in your user account.

Time Position Orientation Groundspeed Altitude Reporting Facility
EDT Latitude Longitude Course Direction KTS MPH feet Rate Location/Type
Thu 02:05:00 PM 50.9833 -114.0333 171° South 230 265 9,200  Level Edmonton Center
Thu 02:06:00 PM 50.9167 -114.0833 205° Southwest 280 322 12,200 2,950 Climbing Edmonton Center
Thu 02:07:00 PM 50.8500 -114.0833 180° South 300 345 15,100 2,650 Climbing Edmonton Center
Thu 02:08:00 PM 50.7333 -114.1167 190° South 320 368 17,500 1,833 Climbing Edmonton Center
Thu 02:09:00 PM 51.0728 -114.0511 197° South  Level Estimated
Thu 02:09:00 PM 50.6216 -114.2225 198° South  Level FlightAware Approximate
Thu 02:10:00 PM 50.5667 -114.2000 198° South 350 403 20,600  Level Edmonton Center
Thu 02:11:00 PM 50.4667 -114.2167 186° South 350 403 22,700 2,000 Climbing Edmonton Center
Thu 02:12:00 PM 50.3667 -114.2667 198° South 350 403 24,600 1,900 Climbing Edmonton Center
Thu 02:13:00 PM 50.2833 -114.3167 201° Southwest 360 414 26,500 1,700 Climbing Edmonton Center
Thu 02:14:00 PM 50.1667 -114.4000 205° Southwest 380 437 28,000 1,550 Climbing Edmonton Center
Thu 02:15:00 PM 50.0667 -114.4667 203° Southwest 410 472 29,600 1,500 Climbing Edmonton Center
Thu 02:16:00 PM 49.9667 -114.5167 198° South 420 483 31,000 1,450 Climbing Edmonton Center
Thu 02:17:00 PM 49.8500 -114.6000 205° Southwest 440 506 32,500 1,500 Climbing Edmonton Center
Thu 02:18:00 PM 49.7167 -114.6833 202° Southwest 450 518 34,000 1,500 Climbing Edmonton Center
Thu 02:19:00 PM 49.6167 -114.7333 198° South 450 518 35,500 1,500 Climbing Edmonton Center
Thu 02:20:00 PM 49.4833 -114.8167 202° Southwest 450 518 37,000 1,250 Climbing Edmonton Center
Thu 02:21:00 PM 49.3667 -114.8667 196° South 450 518 38,000 500 Climbing Edmonton Center
Thu 02:22:00 PM 49.2500 -114.9333 200° South 460 529 38,000  Level Edmonton Center
Thu 02:23:00 PM 49.1167 -115.0167 202° Southwest 480 552 38,000  Level Edmonton Center
Thu 02:24:00 PM 48.9833 -115.0833 198° South 490 564 38,000  Level Edmonton Center
Thu 02:25:00 PM 48.8667 -115.1667 205° Southwest 480 552 38,000  Level Edmonton Center
Thu 02:25:30 PM 48.8444 -115.1728 190° South 485 558 38,000  Level Seattle Center
Thu 02:26:31 PM 48.7172 -115.2453 201° Southwest 488 562 38,000  Level Seattle Center
Thu 02:27:32 PM 48.5919 -115.3172 201° Southwest 487 560 38,000  Level Seattle Center
Thu 02:28:33 PM 48.4647 -115.3892 201° Southwest 489 563 38,000  Level Seattle Center
Thu 02:29:29 PM 48.3392 -115.4597 200° South 486 559 38,000  Level Salt Lake Center
Thu 02:30:31 PM 48.2133 -115.5297 200° South 487 560 38,000  Level Salt Lake Center
Thu 02:31:36 PM 48.0881 -115.6000 201° Southwest 486 559 38,000  Level Seattle Center
Thu 02:32:37 PM 47.9433 -115.6789 200° South 489 563 38,000  Level Seattle Center
Thu 02:33:38 PM 47.8147 -115.7500 200° South 491 565 38,000  Level Seattle Center
Thu 02:34:39 PM 47.6853 -115.8208 200° South 494 568 38,000  Level Seattle Center
Thu 02:35:40 PM 47.5561 -115.8908 200° South 494 568 38,000  Level Seattle Center
Thu 02:36:41 PM 47.4294 -115.9608 201° Southwest 489 563 38,000  Level Seattle Center
Thu 02:37:42 PM 47.2997 -116.0300 200° South 492 566 38,000  Level Seattle Center
Thu 02:38:43 PM 47.1692 -116.0994 200° South 495 570 38,000  Level Seattle Center
Thu 02:39:45 PM 47.0417 -116.1669 200° South 491 565 38,000  Level Seattle Center
Thu 02:40:46 PM 46.9136 -116.2339 200° South 489 563 38,000  Level Seattle Center
Thu 02:41:47 PM 46.7586 -116.3147 200° South 490 564 38,000  Level Seattle Center
Thu 02:42:48 PM 46.6311 -116.3828 200° South 488 562 38,000  Level Seattle Center
Thu 02:43:49 PM 46.5025 -116.4494 200° South 489 563 38,000  Level Seattle Center
Thu 02:44:50 PM 46.3742 -116.5178 200° South 492 566 38,000  Level Seattle Center
Thu 02:45:51 PM 46.2461 -116.5814 199° South 487 560 38,000  Level Seattle Center
Thu 02:46:52 PM 46.1178 -116.6483 200° South 489 563 38,000  Level Seattle Center
Thu 02:47:53 PM 45.9897 -116.7133 199° South 488 562 38,000  Level Seattle Center
Thu 02:48:54 PM 45.8611 -116.7800 200° South 490 564 38,000  Level Seattle Center
Thu 02:49:56 PM 45.7328 -116.8442 199° South 490 564 38,000  Level Seattle Center
Thu 02:50:57 PM 45.6028 -116.9103 200° South 488 562 38,000 541 Level Seattle Center
Thu 02:51:58 PM 45.4617 -116.9814 199° South 482 555 39,100 984 Climbing Seattle Center
Thu 02:52:59 PM 45.3450 -117.0403 200° South 470 541 40,000 934 Climbing Seattle Center
Thu 02:54:00 PM 45.2117 -117.1058 199° South 459 528 41,000 492 Climbing Seattle Center
Thu 02:55:01 PM 45.0981 -117.1606 199° South 454 522 41,000  Level Seattle Center
Thu 02:56:02 PM 44.9808 -117.2203 200° South 462 532 41,000  Level Seattle Center
Thu 02:57:03 PM 44.8406 -117.2886 199° South 473 544 41,000  Level Seattle Center
Thu 02:58:04 PM 44.7200 -117.3467 199° South 477 549 41,000  Level Seattle Center
Thu 02:59:05 PM 44.5794 -117.4150 199° South 480 552 41,000  Level Seattle Center
Thu 02:59:22 PM 44.5594 -117.4239 198° South 480 552 41,000  Level Salt Lake Center
Thu 03:00:24 PM 44.4175 -117.4931 199° South 483 556 41,000  Level Salt Lake Center
Thu 03:01:08 PM 44.3375 -117.5322 199° South 482 555 41,000  Level Seattle Center
Thu 03:02:09 PM 44.1969 -117.5989 199° South 480 552 41,000  Level Seattle Center
Thu 03:03:10 PM 44.0744 -117.6578 199° South 487 560 41,000  Level Seattle Center
Thu 03:03:29 PM 44.0331 -117.6747 196° South 479 551 41,000  Level Salt Lake Center
Thu 03:04:31 PM 43.8922 -117.7417 199° South 480 552 41,000  Level Salt Lake Center
Thu 03:05:33 PM 43.7731 -117.7975 199° South 474 545 41,000  Level Salt Lake Center
Thu 03:06:35 PM 43.6319 -117.8631 199° South 480 552 41,000  Level Salt Lake Center
Thu 03:07:36 PM 43.5133 -117.9194 199° South 475 547 41,000  Level Salt Lake Center
Thu 03:08:38 PM 43.3939 -117.9753 199° South 475 547 41,000  Level Salt Lake Center
Thu 03:09:40 PM 43.2539 -118.0397 199° South 475 547 41,000  Level Salt Lake Center
Thu 03:10:42 PM 43.1336 -118.0956 199° South 476 548 41,000  Level Salt Lake Center
Thu 03:11:44 PM 42.9919 -118.1600 198° South 481 554 41,000  Level Salt Lake Center
Thu 03:12:45 PM 42.8733 -118.2144 199° South 481 554 41,000  Level Salt Lake Center
Thu 03:13:47 PM 42.7458 -118.2747 199° South 484 557 41,000  Level Salt Lake Center
Thu 03:14:49 PM 42.6167 -118.3342 199° South 490 564 41,000  Level Salt Lake Center
Thu 03:15:51 PM 42.4608 -118.4019 198° South 491 565 41,000  Level Salt Lake Center
Thu 03:16:53 PM 42.3375 -118.4569 198° South 493 567 41,000  Level Salt Lake Center
Thu 03:17:54 PM 42.1931 -118.5206 198° South 491 565 41,000  Level Salt Lake Center
Thu 03:18:56 PM 42.0667 -118.5772 198° South 497 572 41,000  Level Salt Lake Center
Thu 03:19:58 PM 41.9411 -118.6339 199° South 497 572 41,000  Level Salt Lake Center
Thu 03:21:00 PM 41.7956 -118.6972 198° South 493 567 41,000  Level Salt Lake Center
Thu 03:22:02 PM 41.6700 -118.7514 198° South 494 568 41,000  Level Salt Lake Center
Thu 03:22:49 PM 41.5664 -118.7983 199° South 497 572 41,000  Level Oakland Center
Thu 03:24:05 PM 41.4267 -118.9272 215° Southwest 481 554 41,000  Level Salt Lake Center
Thu 03:25:04 PM 41.3364 -119.0439 224° Southwest 477 549 41,000  Level Oakland Center
Thu 03:26:05 PM 41.2292 -119.1767 223° Southwest 476 548 41,000  Level Oakland Center
Thu 03:27:07 PM 41.1392 -119.2897 223° Southwest 468 539 41,000  Level Oakland Center
Thu 03:28:08 PM 41.0333 -119.4222 223° Southwest 469 540 41,000  Level Oakland Center
Thu 03:29:10 PM 40.9425 -119.5350 223° Southwest 467 537 41,000  Level Oakland Center
Thu 03:30:11 PM 40.8508 -119.6469 223° Southwest 468 539 41,000  Level Oakland Center
Thu 03:31:12 PM 40.7528 -119.7700 224° Southwest 461 531 41,000  Level Oakland Center
Thu 03:32:14 PM 40.6558 -119.8897 223° Southwest 469 540 41,000  Level Oakland Center
Thu 03:33:15 PM 40.5600 -120.0053 223° Southwest 468 539 41,000  Level Oakland Center
Thu 03:34:17 PM 40.4625 -120.1208 222° Southwest 468 539 41,000  Level Oakland Center
Thu 03:35:18 PM 40.3464 -120.2597 222° Southwest 471 542 41,000  Level Oakland Center
Thu 03:36:19 PM 40.2500 -120.3767 223° Southwest 473 544 41,000  Level Oakland Center
Thu 03:37:21 PM 40.1547 -120.4878 222° Southwest 460 529 41,000  Level Oakland Center
Thu 03:38:22 PM 40.0597 -120.6022 223° Southwest 464 534 41,000  Level Oakland Center
Thu 03:39:24 PM 39.9544 -120.7264 222° Southwest 465 535 41,000  Level Oakland Center
Thu 03:40:25 PM 39.8597 -120.8392 222° Southwest 463 533 41,000  Level Oakland Center
Thu 03:41:27 PM 39.7625 -120.9489 221° Southwest 464 534 41,000  Level Oakland Center
Thu 03:42:28 PM 39.6661 -121.0636 223° Southwest 469 540 41,000  Level Oakland Center
Thu 03:43:30 PM 39.5669 -121.1792 222° Southwest 477 549 41,000  Level Oakland Center
Thu 03:44:31 PM 39.4678 -121.2964 222° Southwest 482 555 41,000  Level Oakland Center
Thu 03:45:32 PM 39.3667 -121.4131 222° Southwest 487 560 41,000  Level Oakland Center
Thu 03:46:34 PM 39.2653 -121.5311 222° Southwest 491 565 41,000  Level Oakland Center
Thu 03:47:35 PM 39.1428 -121.6744 222° Southwest 497 572 41,000  Level Oakland Center
Thu 03:48:37 PM 39.0414 -121.7892 221° Southwest 490 564 41,000  Level Oakland Center
Thu 03:49:38 PM 38.9394 -121.9067 222° Southwest 495 570 41,000 -537 Level Oakland Center
Thu 03:50:40 PM 38.8383 -122.0206 221° Southwest 488 562 39,900 -1,561 Descending Oakland Center
Thu 03:51:41 PM 38.7481 -122.1225 221° Southwest 438 504 37,800 -2,293 Descending Oakland Center
Thu 03:52:43 PM 38.6486 -122.2356 222° Southwest 449 517 35,200 -2,488 Descending Oakland Center
Thu 03:53:44 PM 38.5528 -122.3439 221° Southwest 462 532 32,700 -2,439 Descending Oakland Center
Thu 03:54:46 PM 38.4547 -122.4544 221° Southwest 470 541 30,200 -2,488 Descending Oakland Center
Thu 03:55:47 PM 38.3547 -122.5656 221° Southwest 478 550 27,600 -2,439 Descending Oakland Center
Thu 03:56:49 PM 38.2583 -122.6731 221° Southwest 468 539 25,200 -2,634 Descending Oakland Center
Thu 03:57:50 PM 38.1400 -122.7828 216° Southwest 450 518 22,200 -2,634 Descending Oakland Center
Thu 03:58:52 PM 38.0111 -122.7797 179° South 485 558 19,800 -2,390 Descending Oakland Center
Thu 03:59:53 PM 37.9014 -122.6792 144° Southeast 502 578 17,300 -2,636 Descending Oakland Center
Thu 04:00:39 PM 37.8167 -122.5833 138° Southeast 468 539 15,100 -2,604 Descending Northern Cal TRACON
Thu 04:01:39 PM 37.7167 -122.4833 142° Southeast 442 509 12,700 -1,550 Descending Northern Cal TRACON
Thu 04:02:39 PM 37.6333 -122.3833 136° Southeast 432 497 12,000 -538 Descending Northern Cal TRACON
Thu 04:02:57 PM 37.6028 -122.3567 145° Southeast 435 501 12,000  Level Oakland Center
Thu 04:03:59 PM 37.4986 -122.2883 153° Southeast 429 494 12,000 -537 Level Oakland Center
Thu 04:05:00 PM 37.3964 -122.2250 154° Southeast 413 475 10,900 -1,073 Descending Oakland Center
Thu 04:06:02 PM 37.3208 -122.1567 144° Southeast 357 411 9,800 -1,268 Descending Oakland Center
Thu 04:07:03 PM 37.2711 -122.0736 127° Southeast 305 351 8,300 -1,707 Descending Oakland Center
Thu 04:08:05 PM 37.2244 -121.9967 127° Southeast 283 326 6,300 -1,902 Descending Oakland Center
Thu 04:09:06 PM 37.2031 -121.9317 112° Southeast 223 257 4,400 -1,854 Descending Oakland Center
Thu 04:10:08 PM 37.2506 -121.8775 42° Northeast 202 232 2,500 -1,268 Descending Oakland Center
Thu 04:11:09 PM 37.2933 -121.8606 17° North 186 214 1,800 -836 Descending Oakland Center
Thu 04:12:10 PM 37.3236 -121.8894 323° Northwest 154 177 800 -780 Descending Oakland Center
Thu 04:13:12 PM 37.3511 -121.9186 320° Northwest 139 160 200 -581 Descending Oakland Center

Login

Don't have an account? Register now (free) for customized features, flight alerts, and more!